Time;durP1;ratioP1;P1;durP2;ratioP2;P2;SDS_P1;SDS_P2;PMS_P1;PMS_P2;Temp;Humidity;BMP_temperature;BMP_pressure;BME280_temperature;BME280_humidity;BME280_pressure;Samples;Min_cycle;Max_cycle;Signal;HPM_P1;HPM_P2
2023/06/11 00:01:26;;;;;;;23.05;16.05;;;24.30;99.90;;;;;;5039035;28;20044;-78
2023/06/11 00:03:54;;;;;;;23.40;15.75;;;24.20;99.90;;;;;;5037776;28;20535;-78
2023/06/11 00:06:22;;;;;;;23.27;15.27;;;24.20;99.90;;;;;;5018189;28;20033;-77
2023/06/11 00:08:51;;;;;;;24.17;15.70;;;24.10;99.90;;;;;;5037549;28;20520;-78
2023/06/11 00:11:19;;;;;;;22.75;14.98;;;23.50;99.90;;;;;;5039474;28;20049;-78
2023/06/11 00:13:46;;;;;;;22.58;14.95;;;23.40;99.90;;;;;;5029710;28;20037;-79
2023/06/11 00:16:15;;;;;;;22.77;15.18;;;23.40;99.90;;;;;;5039350;28;20592;-78
2023/06/11 00:18:45;;;;;;;21.25;14.82;;;23.30;99.90;;;;;;5037717;28;20073;-79
2023/06/11 00:21:14;;;;;;;19.10;13.77;;;23.20;99.90;;;;;;5038536;28;20045;-78
2023/06/11 00:23:42;;;;;;;20.85;16.00;;;23.20;99.90;;;;;;5038389;28;20037;-78
2023/06/11 00:26:09;;;;;;;19.38;14.77;;;23.20;99.90;;;;;;5037700;28;20049;-78
2023/06/11 00:28:38;;;;;;;19.67;15.52;;;23.20;99.90;;;;;;5038945;28;20044;-78
2023/06/11 00:31:05;;;;;;;22.63;16.90;;;23.10;99.90;;;;;;5024487;28;20054;-78
2023/06/11 00:33:33;;;;;;;22.73;16.77;;;23.10;99.90;;;;;;5042182;28;20045;-78
2023/06/11 00:36:02;;;;;;;24.67;16.70;;;23.00;99.90;;;;;;5041229;28;20087;-78
2023/06/11 00:38:30;;;;;;;24.65;16.52;;;23.00;99.90;;;;;;5021604;28;20637;-78
2023/06/11 00:40:57;;;;;;;21.65;15.60;;;23.00;99.90;;;;;;5020324;28;20092;-77
2023/06/11 00:43:26;;;;;;;25.83;16.17;;;23.00;99.90;;;;;;5022296;28;20046;-78
2023/06/11 00:45:54;;;;;;;24.90;15.85;;;23.00;99.90;;;;;;5041668;28;20565;-78
2023/06/11 00:48:22;;;;;;;26.25;16.98;;;22.90;99.90;;;;;;5041154;28;20040;-78
2023/06/11 00:50:50;;;;;;;22.08;14.85;;;22.80;99.90;;;;;;5020603;28;20573;-77
2023/06/11 00:53:21;;;;;;;23.08;14.15;;;22.90;99.90;;;;;;5036622;28;20388;-78
2023/06/11 00:55:49;;;;;;;19.75;13.85;;;22.80;99.90;;;;;;5041660;28;20037;-79
2023/06/11 00:58:17;;;;;;;23.10;13.38;;;22.70;99.90;;;;;;5040979;28;20068;-78
2023/06/11 01:00:49;;;;;;;26.48;13.82;;;22.70;99.90;;;;;;5033267;28;20056;-78
2023/06/11 01:03:21;;;;;;;21.98;14.00;;;22.60;99.90;;;;;;5041113;28;20073;-78
2023/06/11 01:05:50;;;;;;;23.42;14.75;;;22.50;99.90;;;;;;5041041;28;20045;-77
2023/06/11 01:08:20;;;;;;;26.63;14.10;;;22.40;99.90;;;;;;5026081;28;20120;-79
2023/06/11 01:10:52;;;;;;;26.73;14.95;;;22.30;99.90;;;;;;5041287;28;20045;-78
2023/06/11 01:13:20;;;;;;;25.20;14.85;;;22.30;99.90;;;;;;5021140;28;20501;-79
2023/06/11 01:15:47;;;;;;;27.42;15.95;;;22.20;99.90;;;;;;5041041;28;20064;-78
2023/06/11 01:18:19;;;;;;;31.63;15.63;;;22.20;99.90;;;;;;5038965;28;20045;-78
2023/06/11 01:20:54;;;;;;;28.65;16.05;;;22.10;99.90;;;;;;5019398;28;20042;-79
2023/06/11 01:23:40;;;;;;;29.90;16.40;;;22.10;99.90;;;;;;5020451;28;20041;-76
2023/06/11 01:26:29;;;;;;;35.17;17.80;;;22.00;99.90;;;;;;5023194;28;20107;-78
2023/06/11 01:29:01;;;;;;;33.28;17.70;;;22.00;99.90;;;;;;5019464;28;20042;-78
2023/06/11 01:31:33;;;;;;;38.80;18.90;;;22.00;99.90;;;;;;5022078;28;20596;-78
2023/06/11 01:34:03;;;;;;;36.65;17.80;;;21.90;99.90;;;;;;5018087;28;20128;-78
2023/06/11 01:36:36;;;;;;;35.20;18.45;;;21.90;99.90;;;;;;5020431;28;20143;-79
2023/06/11 01:39:05;;;;;;;39.83;19.67;;;21.80;99.90;;;;;;5018338;28;20042;-78
2023/06/11 01:41:54;;;;;;;36.42;17.42;;;21.80;99.90;;;;;;5019207;28;20509;-77
2023/06/11 01:44:25;;;;;;;37.25;18.33;;;21.70;99.90;;;;;;5019431;28;20069;-77
2023/06/11 01:46:52;;;;;;;41.03;18.90;;;21.70;99.90;;;;;;5019839;28;20409;-79
2023/06/11 01:49:20;;;;;;;43.63;20.08;;;21.70;99.90;;;;;;5019293;28;20510;-79
2023/06/11 01:51:47;;;;;;;49.13;20.92;;;21.60;99.90;;;;;;5018861;28;20058;-79
2023/06/11 01:54:15;;;;;;;46.72;21.20;;;21.60;99.90;;;;;;5036605;28;20070;-79
2023/06/11 01:56:43;;;;;;;47.58;21.75;;;21.50;99.90;;;;;;5040621;28;20083;-78
2023/06/11 01:59:12;;;;;;;50.40;22.23;;;21.50;99.90;;;;;;5044845;28;20041;-78
2023/06/11 02:01:41;;;;;;;44.70;20.88;;;21.50;99.90;;;;;;5022919;28;20060;-79
2023/06/11 02:04:09;;;;;;;46.25;22.02;;;21.50;99.90;;;;;;5020031;28;20069;-79
2023/06/11 02:06:37;;;;;;;41.55;20.55;;;21.50;99.90;;;;;;5022007;28;20080;-79
2023/06/11 02:09:04;;;;;;;39.20;19.75;;;21.50;99.90;;;;;;5019220;28;20041;-79
2023/06/11 02:11:32;;;;;;;45.97;20.15;;;21.40;99.90;;;;;;5020614;28;20510;-79
2023/06/11 02:13:59;;;;;;;46.85;20.80;;;21.40;99.90;;;;;;5040237;28;20033;-78
2023/06/11 02:16:27;;;;;;;49.75;20.60;;;21.30;99.90;;;;;;5019897;28;20163;-79
2023/06/11 02:18:56;;;;;;;41.20;19.33;;;21.30;99.90;;;;;;5030930;28;20130;-78
2023/06/11 02:21:23;;;;;;;45.40;19.23;;;21.30;99.90;;;;;;5039163;28;20041;-78
2023/06/11 02:23:51;;;;;;;43.30;19.38;;;21.20;99.90;;;;;;5019201;28;20077;-77
2023/06/11 02:26:19;;;;;;;39.13;18.73;;;21.20;99.90;;;;;;5019248;28;20042;-77
2023/06/11 02:28:46;;;;;;;36.50;18.85;;;21.20;99.90;;;;;;5021744;28;20090;-78
2023/06/11 02:31:14;;;;;;;41.58;19.52;;;21.20;99.90;;;;;;5040311;28;20528;-77
2023/06/11 02:33:41;;;;;;;37.60;19.10;;;21.10;99.90;;;;;;5021378;28;20546;-77
2023/06/11 02:36:10;;;;;;;46.10;19.98;;;21.00;99.90;;;;;;5018576;28;20040;-77
2023/06/11 02:38:37;;;;;;;41.20;19.42;;;21.00;99.90;;;;;;5038658;28;20473;-78
2023/06/11 02:41:05;;;;;;;45.85;20.52;;;21.00;99.90;;;;;;5023515;28;20132;-78
2023/06/11 02:43:32;;;;;;;47.88;20.98;;;21.00;99.90;;;;;;5039738;28;20054;-76
2023/06/11 02:46:00;;;;;;;45.90;20.65;;;21.00;99.90;;;;;;5026100;28;20098;-78
2023/06/11 02:48:27;;;;;;;55.58;21.63;;;20.90;99.90;;;;;;5027191;28;20069;-78
2023/06/11 02:50:55;;;;;;;47.97;20.67;;;20.90;99.90;;;;;;5038386;28;20045;-78
2023/06/11 02:53:23;;;;;;;51.00;21.25;;;20.90;99.90;;;;;;5028383;28;20052;-77
2023/06/11 02:55:51;;;;;;;41.42;19.75;;;20.90;99.90;;;;;;5025426;28;20049;-78
2023/06/11 02:58:18;;;;;;;41.92;18.10;;;20.90;99.90;;;;;;5039043;28;20076;-78
2023/06/11 03:00:46;;;;;;;38.97;18.85;;;20.90;99.90;;;;;;5038459;28;20041;-78
2023/06/11 03:03:13;;;;;;;41.13;18.75;;;20.80;99.90;;;;;;5017919;28;20563;-77
2023/06/11 03:05:44;;;;;;;40.60;18.80;;;20.80;99.90;;;;;;5017414;28;20103;-75
2023/06/11 03:08:12;;;;;;;45.85;19.75;;;20.90;99.90;;;;;;5017531;28;20041;-79
2023/06/11 03:10:41;;;;;;;45.28;20.75;;;20.80;99.90;;;;;;5038240;28;20479;-79
2023/06/11 03:13:08;;;;;;;44.97;19.83;;;20.80;99.90;;;;;;5017956;28;20058;-78
2023/06/11 03:15:36;;;;;;;46.13;19.63;;;20.70;99.90;;;;;;5037354;28;20047;-79
2023/06/11 03:18:04;;;;;;;50.45;23.27;;;20.70;99.90;;;;;;5018342;28;20057;-79
2023/06/11 03:20:34;;;;;;;50.85;21.95;;;20.70;99.90;;;;;;5020063;28;20041;-79
2023/06/11 03:23:03;;;;;;;51.42;21.20;;;20.70;99.90;;;;;;5020413;28;20041;-78
2023/06/11 03:25:31;;;;;;;58.13;21.50;;;20.60;99.90;;;;;;5020140;28;20049;-78
2023/06/11 03:28:02;;;;;;;47.00;18.83;;;20.60;99.90;;;;;;5032791;28;20129;-78
2023/06/11 03:30:30;;;;;;;53.28;21.27;;;20.50;99.90;;;;;;5025657;28;20048;-78
2023/06/11 03:32:57;;;;;;;53.63;23.13;;;20.50;99.90;;;;;;5022006;28;20057;-79
2023/06/11 03:35:25;;;;;;;51.20;20.48;;;20.50;99.90;;;;;;5018116;28;20061;-78
2023/06/11 03:37:53;;;;;;;48.47;20.95;;;20.50;99.90;;;;;;5016224;28;20065;-78
2023/06/11 03:40:24;;;;;;;50.30;20.35;;;20.40;99.90;;;;;;5018097;28;20053;-79
2023/06/11 03:42:53;;;;;;;49.28;18.92;;;20.30;99.90;;;;;;5017080;28;20124;-78
2023/06/11 03:45:22;;;;;;;51.67;19.88;;;20.30;99.90;;;;;;5034231;28;20049;-78
2023/06/11 03:47:52;;;;;;;51.30;21.30;;;20.30;99.90;;;;;;5016345;28;20064;-78
2023/06/11 03:50:21;;;;;;;51.40;20.98;;;20.20;99.90;;;;;;5016519;28;20095;-78
2023/06/11 03:52:49;;;;;;;59.38;22.13;;;20.20;99.90;;;;;;5015704;28;20049;-79
2023/06/11 03:55:17;;;;;;;54.03;21.17;;;20.10;99.90;;;;;;5033587;28;20055;-79
2023/06/11 03:57:45;;;;;;;54.53;23.42;;;20.00;99.90;;;;;;5015776;28;20510;-77
2023/06/11 04:00:14;;;;;;;59.13;23.33;;;20.00;99.90;;;;;;5017346;28;20052;-77
2023/06/11 04:02:43;;;;;;;56.67;23.73;;;19.90;99.90;;;;;;5038217;28;20072;-77
2023/06/11 04:05:15;;;;;;;65.10;25.48;;;19.90;99.90;;;;;;5017066;28;20498;-77
2023/06/11 04:07:45;;;;;;;60.92;25.42;;;19.90;99.90;;;;;;5015826;28;20098;-77
2023/06/11 04:10:14;;;;;;;61.17;24.55;;;19.80;99.90;;;;;;5033876;28;20041;-79
2023/06/11 04:12:41;;;;;;;61.35;24.80;;;19.90;99.90;;;;;;5036835;28;20154;-79
2023/06/11 04:15:10;;;;;;;61.35;25.08;;;19.90;99.90;;;;;;5037384;28;20041;-78
2023/06/11 04:20:22;;;;;;;58.47;24.33;;;19.80;99.90;;;;;;5110403;27;20746;-80
2023/06/11 04:22:51;;;;;;;61.15;23.42;;;19.90;99.90;;;;;;5093237;28;20566;-79
2023/06/11 04:25:19;;;;;;;58.08;24.58;;;19.90;99.90;;;;;;5081485;28;20144;-79
2023/06/11 04:27:48;;;;;;;63.35;24.73;;;19.90;99.90;;;;;;5074855;28;20132;-77
2023/06/11 04:30:16;;;;;;;67.68;25.38;;;19.80;99.90;;;;;;5074482;28;20403;-79
2023/06/11 04:32:47;;;;;;;67.57;26.15;;;19.70;99.90;;;;;;5073934;28;20501;-79
2023/06/11 04:35:16;;;;;;;64.97;26.13;;;19.70;99.90;;;;;;5074490;28;20064;-78
2023/06/11 04:37:47;;;;;;;68.55;24.95;;;19.50;99.90;;;;;;5073753;28;20041;-78
2023/06/11 04:40:20;;;;;;;68.63;26.50;;;19.30;99.90;;;;;;5074591;28;20056;-78
2023/06/11 04:42:49;;;;;;;66.70;26.30;;;19.20;99.90;;;;;;5073004;28;20029;-79
2023/06/11 04:45:20;;;;;;;68.75;26.35;;;19.20;99.90;;;;;;5072260;28;20135;-79
2023/06/11 04:47:48;;;;;;;72.82;27.63;;;19.10;99.90;;;;;;5074794;28;20040;-77
2023/06/11 04:50:20;;;;;;;69.03;26.80;;;19.10;99.90;;;;;;5073270;28;20036;-77
2023/06/11 04:52:52;;;;;;;67.28;28.05;;;19.10;99.90;;;;;;5073751;28;20044;-78
2023/06/11 04:55:24;;;;;;;68.60;26.73;;;19.10;99.90;;;;;;5074687;28;20491;-77
2023/06/11 04:57:54;;;;;;;74.22;28.70;;;19.10;99.90;;;;;;5073314;28;20040;-78
2023/06/11 05:00:23;;;;;;;70.68;27.75;;;19.10;99.90;;;;;;5074414;28;20520;-77
2023/06/11 05:02:53;;;;;;;72.55;29.15;;;19.10;99.90;;;;;;5074588;28;20040;-77
2023/06/11 05:05:21;;;;;;;76.22;29.70;;;19.00;99.90;;;;;;5073616;28;20057;-77
2023/06/11 05:07:51;;;;;;;69.18;29.02;;;19.00;99.90;;;;;;5073909;28;20051;-78
2023/06/11 05:10:19;;;;;;;63.08;27.48;;;19.00;99.90;;;;;;5076346;28;20063;-78
2023/06/11 05:12:47;;;;;;;70.05;27.23;;;19.00;99.90;;;;;;5074087;28;20400;-78
2023/06/11 05:15:15;;;;;;;68.55;27.25;;;19.00;99.90;;;;;;5073908;28;20040;-77
2023/06/11 05:17:43;;;;;;;72.85;29.42;;;19.10;99.90;;;;;;5072058;28;20644;-77
2023/06/11 05:20:11;;;;;;;68.05;27.58;;;19.10;99.90;;;;;;5073203;28;20508;-77
2023/06/11 05:22:40;;;;;;;74.20;32.08;;;19.20;99.90;;;;;;5074499;28;20553;-78
2023/06/11 05:25:14;;;;;;;76.70;35.72;;;19.20;99.90;;;;;;5073265;28;20059;-77
2023/06/11 05:27:43;;;;;;;71.30;32.25;;;19.20;99.90;;;;;;5088032;28;20149;-77
2023/06/11 05:30:11;;;;;;;64.97;29.00;;;19.30;99.90;;;;;;5068676;28;20044;-77
2023/06/11 05:32:39;;;;;;;57.97;28.70;;;19.30;99.90;;;;;;5059712;28;20048;-77
2023/06/11 05:35:07;;;;;;;58.38;28.02;;;19.40;99.90;;;;;;5061620;28;20064;-78
2023/06/11 05:37:36;;;;;;;55.28;28.10;;;19.40;99.90;;;;;;5059148;28;20052;-78
2023/06/11 05:40:04;;;;;;;62.67;31.63;;;19.40;99.90;;;;;;5057882;28;20565;-78
2023/06/11 05:42:33;;;;;;;68.20;32.95;;;19.40;99.90;;;;;;5058199;28;20072;-78
2023/06/11 05:45:01;;;;;;;64.85;33.63;;;19.40;99.90;;;;;;5059422;28;20378;-79
2023/06/11 05:47:29;;;;;;;72.30;35.45;;;19.40;99.90;;;;;;5062281;28;20068;-79
2023/06/11 05:49:56;;;;;;;67.40;31.75;;;19.50;99.90;;;;;;5059296;28;20060;-78
2023/06/11 05:52:25;;;;;;;70.05;32.28;;;19.60;99.90;;;;;;5059844;28;20045;-78
2023/06/11 05:54:54;;;;;;;71.68;36.15;;;19.80;99.90;;;;;;5058590;28;20045;-78
2023/06/11 05:57:23;;;;;;;75.68;37.55;;;19.90;99.90;;;;;;5058801;28;20051;-78
2023/06/11 05:59:53;;;;;;;77.18;37.50;;;20.00;99.90;;;;;;5058813;28;20284;-78
2023/06/11 06:02:22;;;;;;;86.97;37.63;;;20.10;99.90;;;;;;5059358;28;20041;-77
2023/06/11 06:04:51;;;;;;;132.25;47.50;;;20.10;99.90;;;;;;5056651;28;20106;-77
2023/06/11 06:07:18;;;;;;;83.53;39.60;;;20.20;99.90;;;;;;5060588;28;20036;-78
2023/06/11 06:09:47;;;;;;;75.30;36.88;;;20.20;99.90;;;;;;5081575;28;20079;-77
2023/06/11 06:12:15;;;;;;;92.03;43.38;;;20.30;99.90;;;;;;5058215;28;20036;-76
2023/06/11 06:14:43;;;;;;;133.50;50.75;;;20.30;99.90;;;;;;5058063;28;20044;-77
2023/06/11 06:17:12;;;;;;;128.55;54.08;;;20.30;99.90;;;;;;5059529;28;20068;-79
2023/06/11 06:19:41;;;;;;;132.45;55.00;;;20.40;99.90;;;;;;5066998;28;20469;-79
2023/06/11 06:22:09;;;;;;;122.80;53.38;;;20.60;99.90;;;;;;5075657;28;20048;-78
2023/06/11 06:24:37;;;;;;;161.18;60.15;;;20.60;99.90;;;;;;5075383;28;20409;-78
2023/06/11 06:27:06;;;;;;;156.55;60.22;;;20.70;99.90;;;;;;5075429;28;20127;-79
2023/06/11 06:29:38;;;;;;;159.43;58.38;;;20.80;99.90;;;;;;5076056;28;20047;-79
2023/06/11 06:32:08;;;;;;;151.40;56.97;;;21.00;99.90;;;;;;5077536;28;20044;-77
2023/06/11 06:34:37;;;;;;;170.70;61.53;;;21.20;99.90;;;;;;5069874;28;20435;-78
2023/06/11 06:37:05;;;;;;;167.02;56.65;;;21.30;99.90;;;;;;5059445;28;20067;-79
2023/06/11 06:39:34;;;;;;;205.25;61.17;;;21.30;99.90;;;;;;5058291;28;20071;-78
2023/06/11 06:42:02;;;;;;;219.98;64.43;;;21.50;99.90;;;;;;5057313;28;20404;-79
2023/06/11 06:44:40;;;;;;;246.52;71.57;;;21.70;99.90;;;;;;5058207;28;20032;-78
2023/06/11 06:47:08;;;;;;;183.48;58.78;;;22.00;99.90;;;;;;5057957;28;20072;-79
2023/06/11 06:49:38;;;;;;;168.98;54.55;;;22.10;1.00;;;;;;5059402;28;20110;-78
2023/06/11 06:52:09;;;;;;;159.07;50.17;;;22.30;99.90;;;;;;5058322;28;20087;-78
2023/06/11 06:54:37;;;;;;;131.30;43.88;;;22.40;1.00;;;;;;5058378;28;20041;-78
2023/06/11 06:57:07;;;;;;;105.40;38.42;;;22.60;99.90;;;;;;5059828;28;20124;-78
2023/06/11 06:59:35;;;;;;;96.47;36.30;;;22.50;99.90;;;;;;5057700;28;20037;-77
2023/06/11 07:02:03;;;;;;;95.75;36.75;;;22.50;1.00;;;;;;5058830;28;20404;-78
2023/06/11 07:04:30;;;;;;;94.25;35.47;;;22.20;1.00;;;;;;5057965;28;20045;-76
2023/06/11 07:06:59;;;;;;;99.25;38.03;;;21.90;1.00;;;;;;5058425;28;20045;-78
2023/06/11 07:09:27;;;;;;;102.10;39.13;;;21.70;1.00;;;;;;5058090;28;20067;-77
2023/06/11 07:11:55;;;;;;;64.68;30.23;;;21.60;1.00;;;;;;5056107;28;20140;-77
2023/06/11 07:14:23;;;;;;;61.65;31.45;;;21.60;99.90;;;;;;5059491;28;20131;-78
2023/06/11 07:16:51;;;;;;;54.90;28.23;;;21.70;67.60;;;;;;5057328;28;20086;-76
2023/06/11 07:19:19;;;;;;;55.92;30.08;;;21.70;1.00;;;;;;5057878;28;20056;-77
2023/06/11 07:21:47;;;;;;;51.75;27.05;;;21.70;1.00;;;;;;5061858;22;20037;-79
2023/06/11 07:24:16;;;;;;;51.65;27.92;;;21.70;1.00;;;;;;5039860;28;20053;-80
2023/06/11 07:26:44;;;;;;;51.50;28.38;;;21.60;1.00;;;;;;5040033;28;20044;-77
2023/06/11 07:29:13;;;;;;;52.70;27.52;;;21.60;1.00;;;;;;5039833;28;20453;-81
2023/06/11 07:31:43;;;;;;;46.55;26.83;;;21.50;1.00;;;;;;5041207;28;20032;-81
2023/06/11 07:34:10;;;;;;;48.42;26.85;;;21.50;1.00;;;;;;5035249;28;20073;-80
2023/06/11 07:36:38;;;;;;;43.85;24.77;;;21.50;90.00;;;;;;5034887;28;20538;-78
2023/06/11 07:39:07;;;;;;;42.67;26.33;;;21.50;1.00;;;;;;5035796;28;20042;-76
2023/06/11 07:41:37;;;;;;;39.60;27.05;;;21.40;1.00;;;;;;5035557;28;20040;-79
2023/06/11 07:44:07;;;;;;;44.67;29.67;;;21.50;1.00;;;;;;5036610;28;20041;-76
2023/06/11 07:46:35;;;;;;;42.22;29.08;;;21.70;1.00;;;;;;5036271;28;20036;-75
2023/06/11 07:49:03;;;;;;;45.55;31.35;;;21.80;1.00;;;;;;5036818;28;20136;-78
2023/06/11 07:51:32;;;;;;;48.40;35.25;;;22.00;1.00;;;;;;5039647;28;20061;-77
2023/06/11 07:54:06;;;;;;;43.40;31.20;;;22.20;1.00;;;;;;5037227;28;20539;-84
2023/06/11 07:56:33;;;;;;;87.80;47.28;;;22.30;1.00;;;;;;5038697;28;20413;-76
2023/06/11 07:59:02;;;;;;;95.22;50.83;;;22.50;1.00;;;;;;5038168;28;20053;-76
2023/06/11 08:01:30;;;;;;;104.13;54.70;;;22.70;1.00;;;;;;5037660;28;20069;-75
2023/06/11 08:03:58;;;;;;;118.53;57.63;;;22.70;99.90;;;;;;5038178;28;20049;-77
2023/06/11 08:06:26;;;;;;;134.85;69.20;;;22.50;99.90;;;;;;5038812;28;20041;-80
2023/06/11 08:08:53;;;;;;;120.82;59.80;;;22.30;1.00;;;;;;5036351;28;20127;-77
2023/06/11 08:11:21;;;;;;;111.80;58.20;;;22.10;1.00;;;;;;5036432;28;20048;-78
2023/06/11 08:13:49;;;;;;;108.57;57.40;;;22.00;1.00;;;;;;5037061;28;20037;-75
2023/06/11 08:16:18;;;;;;;93.95;51.20;;;21.90;1.00;;;;;;5053046;28;20072;-76
2023/06/11 08:18:45;;;;;;;91.68;51.78;;;21.80;1.00;;;;;;5036449;28;20049;-78
2023/06/11 08:21:12;;;;;;;79.47;47.88;;;21.60;1.00;;;;;;5037022;28;20124;-77
2023/06/11 08:23:40;;;;;;;74.63;44.72;;;21.40;1.00;;;;;;5039161;28;20044;-76
2023/06/11 08:26:08;;;;;;;66.07;40.80;;;21.40;1.00;;;;;;5035295;28;20133;-76
2023/06/11 08:28:37;;;;;;;64.88;41.65;;;21.40;1.00;;;;;;5037267;28;20042;-76
2023/06/11 08:31:05;;;;;;;74.80;48.47;;;21.50;1.00;;;;;;5035521;28;20041;-78
2023/06/11 08:33:34;;;;;;;87.18;51.15;;;21.60;1.00;;;;;;5062398;28;20052;-77
2023/06/11 08:36:01;;;;;;;96.50;59.90;;;21.70;1.00;;;;;;5039159;28;20400;-78
2023/06/11 08:38:29;;;;;;;135.70;70.63;;;21.80;1.00;;;;;;5037252;28;20071;-79
2023/06/11 08:40:57;;;;;;;157.10;76.38;;;21.90;1.00;;;;;;5038486;28;20202;-78
2023/06/11 08:43:25;;;;;;;162.57;76.55;;;21.80;1.00;;;;;;5039767;28;20037;-77
2023/06/11 08:45:52;;;;;;;153.55;73.22;;;21.80;1.00;;;;;;5043639;28;20047;-78
2023/06/11 08:48:21;;;;;;;182.48;84.07;;;21.70;1.00;;;;;;5038870;28;20063;-81
2023/06/11 08:50:50;;;;;;;158.75;75.85;;;21.60;1.00;;;;;;5037630;28;20485;-76
2023/06/11 08:53:18;;;;;;;89.07;40.75;;;21.40;1.00;;;;;;5039074;28;20406;-80
2023/06/11 08:55:46;;;;;;;41.03;20.75;;;21.20;99.90;;;;;;5038418;28;20041;-81
2023/06/11 08:58:17;;;;;;;42.72;21.10;;;20.50;99.90;;;;;;5037305;28;20573;-87
2023/06/11 09:00:44;;;;;;;14.05;8.80;;;19.90;1.00;;;;;;5039931;28;20049;-83
2023/06/11 09:03:11;;;;;;;23.30;9.48;;;19.20;1.00;;;;;;5036270;28;20076;-82
2023/06/11 09:05:40;;;;;;;14.85;8.15;;;18.80;1.00;;;;;;5040861;28;20048;-78
2023/06/11 09:08:09;;;;;;;17.05;8.10;;;18.50;1.00;;;;;;5039669;28;20452;-77
2023/06/11 09:10:48;;;;;;;19.85;10.93;;;18.20;99.90;;;;;;5041793;28;20075;-79
2023/06/11 09:13:16;;;;;;;31.13;13.15;;;18.10;99.90;;;;;;5060030;28;20103;-78
2023/06/11 09:15:48;;;;;;;21.60;12.40;;;18.00;99.90;;;;;;5042517;28;20560;-79
2023/06/11 09:18:22;;;;;;;22.08;13.05;;;17.90;99.90;;;;;;5039348;28;20420;-77
2023/06/11 09:20:51;;;;;;;25.33;13.80;;;17.90;99.90;;;;;;5043470;28;20045;-77
2023/06/11 09:23:27;;;;;;;25.08;12.30;;;17.80;99.90;;;;;;5042825;28;20848;-77
2023/06/11 09:25:56;;;;;;;18.67;11.60;;;17.90;99.90;;;;;;5041921;28;20398;-76
2023/06/11 09:28:29;;;;;;;19.27;11.50;;;17.80;99.90;;;;;;5039618;28;20497;-77
2023/06/11 09:30:58;;;;;;;24.80;14.95;;;17.80;99.90;;;;;;5044187;28;20037;-77
2023/06/11 09:33:25;;;;;;;25.98;14.93;;;17.90;99.90;;;;;;5040623;28;20525;-78
2023/06/11 09:35:53;;;;;;;21.35;14.32;;;18.00;99.90;;;;;;5042511;28;20091;-78
2023/06/11 09:38:22;;;;;;;22.65;16.05;;;18.00;99.90;;;;;;5043211;28;20045;-78
2023/06/11 09:40:53;;;;;;;25.15;15.25;;;17.90;99.90;;;;;;5055207;28;20489;-76
2023/06/11 09:43:22;;;;;;;20.80;13.60;;;18.10;99.90;;;;;;5042231;28;20041;-77
2023/06/11 09:45:52;;;;;;;29.35;17.50;;;18.10;99.90;;;;;;5037554;28;20068;-81
2023/06/11 09:48:21;;;;;;;19.08;12.77;;;18.20;99.90;;;;;;5040134;28;20567;-78
2023/06/11 09:50:50;;;;;;;23.05;15.30;;;18.20;99.90;;;;;;5042044;28;20049;-77
2023/06/11 09:53:19;;;;;;;22.63;14.40;;;18.20;99.90;;;;;;5040462;28;20049;-78
2023/06/11 09:55:49;;;;;;;21.48;14.70;;;18.30;99.90;;;;;;5041091;28;20137;-80
2023/06/11 09:58:21;;;;;;;20.70;13.80;;;18.40;99.90;;;;;;5037177;28;20037;-76
2023/06/11 10:00:49;;;;;;;23.35;14.10;;;18.40;99.90;;;;;;5041358;28;20128;-77
2023/06/11 10:03:17;;;;;;;16.50;12.23;;;18.40;99.90;;;;;;5039977;28;20104;-79
2023/06/11 10:05:45;;;;;;;20.35;12.98;;;18.40;99.90;;;;;;5038937;28;20045;-77
2023/06/11 10:08:17;;;;;;;16.63;11.65;;;18.50;99.90;;;;;;5042503;28;20047;-77
2023/06/11 10:10:46;;;;;;;13.45;9.98;;;18.40;99.90;;;;;;5040775;28;20041;-78
2023/06/11 10:13:29;;;;;;;15.38;10.23;;;18.40;99.90;;;;;;5042783;28;20038;-78
2023/06/11 10:15:58;;;;;;;16.63;12.05;;;18.30;99.90;;;;;;5039649;28;20048;-80
2023/06/11 10:18:26;;;;;;;17.63;11.25;;;18.20;99.90;;;;;;5047776;28;20075;-78
2023/06/11 10:20:55;;;;;;;14.98;10.63;;;18.30;99.90;;;;;;5042926;28;20052;-79
2023/06/11 10:23:22;;;;;;;15.63;11.07;;;18.30;99.90;;;;;;5041129;28;20664;-79
2023/06/11 10:25:54;;;;;;;20.58;14.52;;;18.30;99.90;;;;;;5040248;28;20049;-80
2023/06/11 10:28:34;;;;;;;16.35;10.48;;;18.30;99.90;;;;;;5041640;28;20473;-80
2023/06/11 10:31:04;;;;;;;16.70;10.95;;;18.30;99.90;;;;;;5041477;28;20421;-81
2023/06/11 10:33:43;;;;;;;16.50;11.52;;;18.40;99.90;;;;;;5043003;28;20140;-82
2023/06/11 10:36:22;;;;;;;15.13;10.23;;;18.40;99.90;;;;;;5044748;28;20045;-83
2023/06/11 10:38:50;;;;;;;11.63;8.98;;;18.50;99.90;;;;;;5066173;28;20511;-83
2023/06/11 10:41:27;;;;;;;14.00;9.68;;;18.60;99.90;;;;;;5043051;28;20046;-82
2023/06/11 10:43:57;;;;;;;12.48;8.80;;;18.70;99.90;;;;;;5045890;28;20055;-82
2023/06/11 10:46:26;;;;;;;11.73;8.40;;;18.80;99.90;;;;;;5051428;28;20045;-82
2023/06/11 10:48:55;;;;;;;11.65;6.60;;;18.80;99.90;;;;;;5058860;28;20053;-83
2023/06/11 10:51:23;;;;;;;8.95;6.30;;;18.70;99.90;;;;;;5050537;28;20048;-84
2023/06/11 10:53:58;;;;;;;8.95;6.80;;;18.70;99.90;;;;;;5047192;28;20128;-84
2023/06/11 10:56:27;;;;;;;8.55;6.50;;;18.80;99.90;;;;;;5047418;28;20132;-83
2023/06/11 10:58:56;;;;;;;9.25;7.10;;;18.90;99.90;;;;;;5045125;28;20037;-82
2023/06/11 11:01:24;;;;;;;9.52;7.82;;;19.00;99.90;;;;;;5045502;28;20045;-82
2023/06/11 11:04:03;;;;;;;8.77;6.68;;;19.00;99.90;;;;;;5048836;28;20086;-82
2023/06/11 11:06:31;;;;;;;8.10;6.13;;;19.10;97.70;;;;;;5041479;28;20055;-82
2023/06/11 11:09:02;;;;;;;8.35;6.55;;;19.00;1.00;;;;;;5042005;28;20029;-83
2023/06/11 11:11:31;;;;;;;8.18;6.93;;;19.00;1.00;;;;;;5043081;28;20041;-81
2023/06/11 11:14:00;;;;;;;9.00;7.00;;;19.10;1.00;;;;;;5040091;28;20037;-83
2023/06/11 11:16:27;;;;;;;13.48;10.63;;;19.30;1.00;;;;;;5040465;28;20037;-82
2023/06/11 11:18:56;;;;;;;9.43;7.82;;;19.50;99.90;;;;;;5049219;28;20068;-83
2023/06/11 11:21:30;;;;;;;9.75;7.50;;;19.60;99.90;;;;;;5057969;28;20081;-82
2023/06/11 11:23:57;;;;;;;10.25;6.50;;;19.60;1.00;;;;;;5056028;28;20045;-81
2023/06/11 11:26:27;;;;;;;9.05;7.00;;;19.70;99.90;;;;;;5038455;28;20045;-83
2023/06/11 11:28:55;;;;;;;9.63;7.57;;;19.70;1.00;;;;;;5039189;28;20537;-85
2023/06/11 11:31:23;;;;;;;10.23;8.07;;;19.80;7.00;;;;;;5042215;28;20046;-84
2023/06/11 11:33:51;;;;;;;10.70;8.85;;;19.80;1.00;;;;;;5043189;28;20041;-83
2023/06/11 11:36:20;;;;;;;10.57;7.38;;;20.00;99.90;;;;;;5065446;28;20045;-82
2023/06/11 11:38:48;;;;;;;8.25;6.57;;;20.20;1.00;;;;;;5037754;28;20041;-81
2023/06/11 11:41:15;;;;;;;7.50;5.65;;;20.40;1.00;;;;;;5039742;28;20045;-81
2023/06/11 11:43:44;;;;;;;8.88;5.68;;;20.70;1.00;;;;;;5061564;28;20041;-81
2023/06/11 11:46:17;;;;;;;9.23;6.50;;;20.80;1.00;;;;;;5043010;28;20484;-81
2023/06/11 11:48:44;;;;;;;14.55;7.43;;;20.90;1.00;;;;;;5039305;28;20042;-80
2023/06/11 11:51:13;;;;;;;8.50;5.55;;;21.30;1.00;;;;;;5037403;28;20044;-79
2023/06/11 11:53:42;;;;;;;7.30;5.30;;;21.50;99.90;;;;;;5044227;28;20061;-81
2023/06/11 11:56:10;;;;;;;6.68;5.00;;;21.70;99.90;;;;;;5040136;28;20049;-82
2023/06/11 11:58:39;;;;;;;6.43;5.20;;;22.00;1.00;;;;;;5039256;28;20044;-78
2023/06/11 12:01:08;;;;;;;6.00;4.90;;;22.00;1.00;;;;;;5037527;28;20511;-78
2023/06/11 12:03:37;;;;;;;6.43;5.18;;;22.20;1.00;;;;;;5037679;28;20091;-80
2023/06/11 12:06:06;;;;;;;5.95;4.65;;;22.40;1.00;;;;;;5039288;28;20443;-80
2023/06/11 12:08:34;;;;;;;6.10;5.28;;;22.60;99.90;;;;;;5038226;28;20474;-79
2023/06/11 12:11:06;;;;;;;8.15;5.53;;;23.00;99.90;;;;;;5038369;28;20041;-80
2023/06/11 12:13:33;;;;;;;7.57;6.15;;;23.00;99.90;;;;;;5062793;28;20048;-79
2023/06/11 12:16:01;;;;;;;8.15;4.97;;;23.40;99.90;;;;;;5036538;28;20049;-77
2023/06/11 12:18:28;;;;;;;10.18;6.57;;;23.60;99.90;;;;;;5038262;28;20052;-78
2023/06/11 12:20:56;;;;;;;8.45;6.68;;;23.90;99.90;;;;;;5036735;28;20409;-80
2023/06/11 12:23:23;;;;;;;7.82;6.60;;;24.30;99.90;;;;;;5037178;28;20049;-78
2023/06/11 12:25:51;;;;;;;5.93;4.63;;;24.50;99.90;;;;;;5038467;28;20041;-77
2023/06/11 12:28:20;;;;;;;5.65;4.90;;;24.70;99.90;;;;;;5035505;28;20056;-78
2023/06/11 12:30:48;;;;;;;6.38;5.53;;;25.10;99.90;;;;;;5037341;28;20394;-77
2023/06/11 12:33:15;;;;;;;5.60;4.35;;;25.40;93.40;;;;;;5037264;28;20520;-77
2023/06/11 12:35:44;;;;;;;5.80;4.25;;;25.70;38.00;;;;;;5036645;28;20052;-78
2023/06/11 12:38:11;;;;;;;5.68;4.07;;;25.90;18.30;;;;;;5036975;28;20045;-79
2023/06/11 12:40:39;;;;;;;5.20;4.70;;;26.20;1.00;;;;;;5036875;28;20671;-77
2023/06/11 12:43:06;;;;;;;5.32;4.10;;;26.20;1.00;;;;;;5041075;28;20623;-77